createdAt,value
2018-12-23T00:00:02.639Z,6.60
2018-12-23T00:01:05.499Z,6.80
2018-12-23T00:02:05.482Z,7.50
2018-12-23T00:03:05.413Z,6.90
2018-12-23T00:04:06.416Z,6.20
2018-12-23T00:05:11.319Z,6.60
2018-12-23T00:06:04.925Z,6.80
2018-12-23T00:07:05.417Z,6.80
2018-12-23T00:08:03.917Z,6.40
2018-12-23T00:09:05.907Z,6.50
2018-12-23T00:10:02.433Z,6.60
2018-12-23T00:11:04.919Z,6.90
2018-12-23T00:12:05.406Z,6.60
2018-12-23T00:13:03.918Z,6.90
2018-12-23T00:14:04.445Z,6.30
2018-12-23T00:15:06.443Z,6.20
2018-12-23T00:16:06.408Z,7.00
2018-12-23T00:17:03.436Z,6.50
2018-12-23T00:18:03.410Z,6.50
2018-12-23T00:19:03.421Z,6.30
2018-12-23T00:20:03.949Z,6.50
2018-12-23T00:21:06.422Z,6.70
2018-12-23T00:22:03.911Z,6.90
2018-12-23T00:23:06.411Z,6.70
2018-12-23T00:24:03.987Z,6.90
2018-12-23T00:25:02.134Z,7.00
2018-12-23T00:26:04.909Z,6.80
2018-12-23T00:27:06.410Z,7.20
2018-12-23T00:28:02.106Z,6.80
2018-12-23T00:29:02.059Z,7.30
2018-12-23T00:30:02.056Z,6.90
2018-12-23T00:31:05.946Z,7.00
2018-12-23T00:32:04.918Z,6.60
2018-12-23T00:33:04.922Z,6.60
2018-12-23T00:34:05.419Z,7.10
2018-12-23T00:35:05.411Z,7.10
2018-12-23T00:36:01.918Z,7.30
2018-12-23T00:37:01.897Z,7.40
2018-12-23T00:38:02.412Z,7.10
2018-12-23T00:39:01.885Z,7.10
2018-12-23T00:40:01.860Z,7.30
2018-12-23T00:41:01.830Z,7.10
2018-12-23T00:42:01.804Z,7.10
2018-12-23T00:43:01.872Z,7.60
2018-12-23T00:44:01.769Z,7.90
2018-12-23T00:45:01.754Z,7.70
2018-12-23T00:46:01.758Z,7.70
2018-12-23T00:47:01.710Z,7.20
2018-12-23T00:48:01.689Z,7.60
2018-12-23T00:49:01.693Z,7.70
2018-12-23T00:50:01.650Z,8.00
2018-12-23T00:51:01.634Z,7.30
2018-12-23T00:52:01.635Z,7.40
2018-12-23T00:53:01.593Z,7.30
2018-12-23T00:54:01.577Z,7.20
2018-12-23T00:55:01.552Z,7.60
2018-12-23T00:56:01.554Z,7.80
2018-12-23T00:57:02.456Z,7.70
2018-12-23T00:58:01.494Z,7.40
2018-12-23T00:59:01.474Z,7.50
2018-12-23T01:00:01.481Z,7.70
2018-12-23T01:01:01.453Z,7.40
2018-12-23T01:02:01.451Z,8.20
2018-12-23T01:03:01.417Z,7.70
2018-12-23T01:04:01.377Z,6.70
2018-12-23T01:05:01.383Z,7.80
2018-12-23T01:06:01.390Z,7.40
2018-12-23T01:07:01.915Z,7.60
2018-12-23T01:08:01.321Z,7.30
2018-12-23T01:09:01.285Z,7.50
2018-12-23T01:10:01.261Z,7.20
2018-12-23T01:11:01.239Z,7.20
2018-12-23T01:12:01.228Z,7.60
2018-12-23T01:13:01.196Z,7.80
2018-12-23T01:14:01.198Z,7.70
2018-12-23T01:15:01.159Z,7.50
2018-12-23T01:16:01.144Z,8.60
2018-12-23T01:17:01.120Z,7.60
2018-12-23T01:18:01.104Z,7.90
2018-12-23T01:19:01.102Z,8.30
2018-12-23T01:20:01.064Z,7.90
2018-12-23T01:21:01.040Z,7.10
2018-12-23T01:22:01.019Z,7.80
2018-12-23T01:23:01.003Z,7.70
2018-12-23T01:24:00.982Z,7.80
2018-12-23T01:25:00.987Z,8.70
2018-12-23T01:26:00.946Z,7.80
2018-12-23T01:27:00.922Z,7.80
2018-12-23T01:28:00.913Z,8.10
2018-12-23T01:29:00.887Z,8.50
2018-12-23T01:30:00.859Z,8.30
2018-12-23T01:31:00.865Z,7.90
2018-12-23T01:32:01.458Z,7.90
2018-12-23T01:33:00.808Z,7.70
2018-12-23T01:34:00.785Z,8.50
2018-12-23T01:35:00.761Z,7.90
2018-12-23T01:36:00.766Z,8.30
2018-12-23T01:37:00.739Z,8.40
2018-12-23T01:38:00.708Z,8.80
2018-12-23T01:39:00.689Z,8.00
2018-12-23T01:40:00.671Z,8.30
2018-12-23T01:41:00.670Z,8.50
2018-12-23T01:42:00.651Z,8.90
2018-12-23T01:43:00.621Z,8.30
2018-12-23T01:44:00.608Z,8.40
2018-12-23T01:45:00.572Z,8.20
2018-12-23T01:46:00.557Z,9.00
2018-12-23T01:47:00.532Z,8.60
2018-12-23T01:48:00.536Z,8.70
2018-12-23T01:49:00.490Z,8.20
2018-12-23T01:50:00.475Z,8.40
2018-12-23T01:51:00.447Z,8.50
2018-12-23T01:52:00.432Z,8.90
2018-12-23T01:53:00.433Z,8.80
2018-12-23T01:54:00.389Z,8.30
2018-12-23T01:55:00.372Z,9.00
2018-12-23T01:56:00.355Z,8.60
2018-12-23T01:57:00.334Z,8.90
2018-12-23T01:58:00.332Z,8.00
2018-12-23T01:59:00.291Z,8.40
2018-12-23T02:00:00.294Z,8.50
2018-12-23T02:01:00.260Z,9.10
2018-12-23T02:02:00.234Z,9.30
2018-12-23T02:03:00.218Z,8.80
2018-12-23T02:04:00.211Z,9.30
2018-12-23T02:05:00.281Z,9.80
2018-12-23T02:06:00.159Z,8.80
2018-12-23T02:07:00.925Z,9.90
2018-12-23T02:08:00.121Z,9.20
2018-12-23T02:09:00.127Z,9.50
2018-12-23T02:10:00.084Z,10.00
2018-12-23T02:11:00.077Z,9.70
2018-12-23T02:12:00.048Z,9.60
2018-12-23T02:13:00.018Z,10.00
2018-12-23T02:14:00.012Z,9.90
2018-12-23T02:14:59.975Z,10.00
2018-12-23T02:15:59.957Z,10.70
2018-12-23T02:16:59.936Z,9.80
2018-12-23T02:17:59.920Z,10.10
2018-12-23T02:18:59.998Z,10.50
2018-12-23T02:19:59.899Z,10.90
2018-12-23T02:20:59.857Z,10.60
2018-12-23T02:21:59.840Z,11.00
2018-12-23T02:22:59.817Z,10.80
2018-12-23T02:23:59.810Z,11.30
2018-12-23T02:24:59.792Z,10.80
2018-12-23T02:25:59.771Z,11.10
2018-12-23T02:26:59.742Z,11.30
2018-12-23T02:27:59.718Z,11.10
2018-12-23T02:28:59.700Z,11.00
2018-12-23T02:29:59.696Z,11.30
2018-12-23T02:30:59.680Z,11.40
2018-12-23T02:31:59.638Z,11.60
2018-12-23T02:32:59.617Z,11.80
2018-12-23T02:33:59.604Z,11.70
2018-12-23T02:34:59.601Z,12.30
2018-12-23T02:36:01.429Z,11.60
2018-12-23T02:37:00.958Z,11.30
2018-12-23T02:37:59.530Z,11.80
2018-12-23T02:38:59.506Z,11.90
2018-12-23T02:39:59.480Z,11.40
2018-12-23T02:40:59.458Z,12.20
2018-12-23T02:41:59.454Z,11.70
2018-12-23T02:43:01.439Z,11.80
2018-12-23T02:44:01.930Z,11.30
2018-12-23T02:44:59.379Z,11.10
2018-12-23T02:45:59.360Z,11.40
2018-12-23T02:46:59.345Z,11.60
2018-12-23T02:47:59.351Z,11.20
2018-12-23T02:48:59.307Z,11.10
2018-12-23T02:49:59.278Z,11.60
2018-12-23T02:50:59.263Z,11.90
2018-12-23T02:51:59.259Z,11.00
2018-12-23T02:52:59.227Z,11.30
2018-12-23T02:53:59.236Z,11.40
2018-12-23T02:55:02.944Z,11.20
2018-12-23T02:56:01.935Z,11.50
2018-12-23T02:57:03.433Z,11.30
2018-12-23T02:57:59.972Z,11.10
2018-12-23T02:58:59.961Z,11.60
2018-12-23T02:59:59.966Z,11.40
2018-12-23T03:00:59.979Z,11.50
2018-12-23T03:02:00.933Z,11.30
2018-12-23T03:03:01.937Z,11.50
2018-12-23T03:04:00.940Z,11.40
2018-12-23T03:05:00.934Z,11.00
2018-12-23T03:06:05.914Z,11.10
2018-12-23T03:06:58.951Z,11.10
2018-12-23T03:07:58.934Z,11.00
2018-12-23T03:08:58.904Z,10.80
2018-12-23T03:09:58.918Z,11.10
2018-12-23T03:10:58.872Z,10.70
2018-12-23T03:11:58.851Z,10.70
2018-12-23T03:12:58.841Z,10.40
2018-12-23T03:13:58.814Z,10.50
2018-12-23T03:14:59.972Z,10.90
2018-12-23T03:15:59.517Z,11.10
2018-12-23T03:16:59.479Z,11.50
2018-12-23T03:17:58.734Z,10.50
2018-12-23T03:18:58.711Z,11.20
2018-12-23T03:19:58.701Z,11.00
2018-12-23T03:20:58.677Z,11.30
2018-12-23T03:21:58.672Z,10.90
2018-12-23T03:22:58.633Z,11.30
2018-12-23T03:23:58.615Z,10.90
2018-12-23T03:24:58.591Z,10.70
2018-12-23T03:25:58.571Z,10.80
2018-12-23T03:26:58.582Z,10.60
2018-12-23T03:27:58.533Z,10.80
2018-12-23T03:28:59.475Z,11.10
2018-12-23T03:29:59.438Z,11.40
2018-12-23T03:31:01.244Z,11.50
2018-12-23T03:31:58.477Z,10.70
2018-12-23T03:32:58.473Z,11.50
2018-12-23T03:33:58.421Z,11.10
2018-12-23T03:34:58.399Z,11.10
2018-12-23T03:35:58.383Z,11.30
2018-12-23T03:36:58.938Z,11.40
2018-12-23T03:37:58.347Z,11.80
2018-12-23T03:38:58.328Z,12.00
2018-12-23T03:39:58.306Z,11.20
2018-12-23T03:40:58.281Z,11.30
2018-12-23T03:41:58.291Z,11.70
2018-12-23T03:42:58.253Z,11.50
2018-12-23T03:43:58.249Z,12.00
2018-12-23T03:44:58.207Z,11.60
2018-12-23T03:46:05.439Z,11.80
2018-12-23T03:46:58.995Z,11.80
2018-12-23T03:47:59.939Z,12.20
2018-12-23T03:48:58.985Z,11.50
2018-12-23T03:50:03.454Z,12.60
2018-12-23T03:51:00.947Z,12.00
2018-12-23T03:51:59.025Z,12.20
2018-12-23T03:53:00.947Z,12.30
2018-12-23T03:53:58.978Z,11.90
2018-12-23T03:54:58.979Z,12.60
2018-12-23T03:55:59.953Z,12.10
2018-12-23T03:56:57.968Z,12.30
2018-12-23T03:57:58.941Z,12.60
2018-12-23T03:58:57.921Z,12.10
2018-12-23T03:59:58.448Z,12.80
2018-12-23T04:00:58.443Z,13.00
2018-12-23T04:01:57.889Z,12.00
2018-12-23T04:03:01.943Z,12.70
2018-12-23T04:04:00.945Z,13.40
2018-12-23T04:04:59.942Z,13.00
2018-12-23T04:06:04.517Z,12.40
2018-12-23T04:07:01.461Z,12.80
2018-12-23T04:07:59.444Z,12.30
2018-12-23T04:08:59.530Z,13.40
2018-12-23T04:09:58.541Z,12.90
2018-12-23T04:10:58.492Z,13.30
2018-12-23T04:11:58.545Z,13.20
2018-12-23T04:12:59.943Z,13.40
2018-12-23T04:13:59.953Z,13.00
2018-12-23T04:14:58.487Z,13.20
2018-12-23T04:15:59.953Z,13.00
2018-12-23T04:16:58.494Z,12.70
2018-12-23T04:17:58.500Z,13.20
2018-12-23T04:18:59.954Z,13.50
2018-12-23T04:19:58.664Z,13.30
2018-12-23T04:20:58.957Z,13.30
2018-12-23T04:21:57.979Z,13.40
2018-12-23T04:22:58.954Z,13.40
2018-12-23T04:23:59.956Z,13.30
2018-12-23T04:24:59.946Z,13.60
2018-12-23T04:25:58.448Z,13.50
2018-12-23T04:26:58.446Z,14.50
2018-12-23T04:27:57.355Z,14.40
2018-12-23T04:29:01.953Z,14.60
2018-12-23T04:29:57.312Z,14.10
2018-12-23T04:30:57.287Z,13.70
2018-12-23T04:31:57.282Z,14.10
2018-12-23T04:32:57.279Z,13.80
2018-12-23T04:33:57.233Z,14.60
2018-12-23T04:34:57.233Z,14.20
2018-12-23T04:35:57.202Z,14.50
2018-12-23T04:36:58.949Z,15.00
2018-12-23T04:37:57.152Z,15.30
2018-12-23T04:38:58.977Z,14.80
2018-12-23T04:39:57.109Z,15.50
2018-12-23T04:40:58.949Z,16.40
2018-12-23T04:41:57.947Z,15.90
2018-12-23T04:42:57.066Z,15.40
2018-12-23T04:43:57.950Z,16.40
2018-12-23T04:44:58.948Z,15.80
2018-12-23T04:45:57.951Z,15.60
2018-12-23T04:46:57.018Z,16.10
2018-12-23T04:47:56.976Z,16.00
2018-12-23T04:48:56.943Z,15.60
2018-12-23T04:49:56.913Z,15.60
2018-12-23T04:50:56.916Z,15.90
2018-12-23T04:51:56.876Z,15.70
2018-12-23T04:52:56.854Z,15.50
2018-12-23T04:53:56.962Z,15.80
2018-12-23T04:54:56.825Z,15.90
2018-12-23T04:55:56.814Z,15.60
2018-12-23T04:56:59.450Z,15.80
2018-12-23T04:57:57.956Z,16.00
2018-12-23T04:58:58.950Z,15.70
2018-12-23T04:59:58.494Z,15.60
2018-12-23T05:00:58.495Z,15.80
2018-12-23T05:01:57.502Z,16.10
2018-12-23T05:03:00.461Z,16.30
2018-12-23T05:03:58.463Z,15.90
2018-12-23T05:04:58.469Z,15.80
2018-12-23T05:05:58.453Z,16.40
2018-12-23T05:06:57.461Z,15.90
2018-12-23T05:07:56.565Z,16.10
2018-12-23T05:08:56.561Z,16.30
2018-12-23T05:09:56.516Z,16.50
2018-12-23T05:10:56.499Z,16.00
2018-12-23T05:11:56.501Z,16.70
2018-12-23T05:12:56.459Z,16.50
2018-12-23T05:13:56.457Z,16.80
2018-12-23T05:14:56.430Z,16.00
2018-12-23T05:15:56.998Z,16.90
2018-12-23T05:16:57.037Z,16.60
2018-12-23T05:17:58.454Z,16.50
2018-12-23T05:18:57.042Z,16.50
2018-12-23T05:19:56.995Z,16.20
2018-12-23T05:20:59.456Z,16.20
2018-12-23T05:21:57.455Z,16.30
2018-12-23T05:22:57.024Z,17.10
2018-12-23T05:23:56.552Z,17.00
2018-12-23T05:24:57.008Z,16.40
2018-12-23T05:25:57.496Z,16.30
2018-12-23T05:27:00.050Z,16.30
2018-12-23T05:27:56.966Z,15.30
2018-12-23T05:28:56.160Z,15.20
2018-12-23T05:29:56.141Z,15.40
2018-12-23T05:30:56.133Z,16.30
2018-12-23T05:31:56.957Z,15.90
2018-12-23T05:32:56.070Z,16.60
2018-12-23T05:33:56.090Z,15.60
2018-12-23T05:34:56.042Z,15.60
2018-12-23T05:35:56.957Z,15.80
2018-12-23T05:36:56.020Z,15.70
2018-12-23T05:37:56.473Z,14.80
2018-12-23T05:38:55.951Z,15.70
2018-12-23T05:39:55.952Z,14.80
2018-12-23T05:40:55.915Z,14.80
2018-12-23T05:41:55.896Z,14.20
2018-12-23T05:42:55.891Z,14.60
2018-12-23T05:43:55.851Z,14.70
2018-12-23T05:44:56.493Z,14.00
2018-12-23T05:45:57.460Z,14.50
2018-12-23T05:46:56.500Z,14.90
2018-12-23T05:47:56.503Z,14.10
2018-12-23T05:48:56.537Z,15.00
2018-12-23T05:49:58.459Z,14.70
2018-12-23T05:50:56.969Z,14.60
2018-12-23T05:51:56.465Z,15.10
2018-12-23T05:52:56.501Z,14.90
2018-12-23T05:53:59.966Z,14.90
2018-12-23T05:54:56.555Z,15.00
2018-12-23T05:55:56.496Z,14.70
2018-12-23T05:56:56.487Z,15.30
2018-12-23T05:57:56.486Z,15.20
2018-12-23T05:58:56.477Z,15.20
2018-12-23T05:59:56.490Z,14.60
2018-12-23T06:00:56.516Z,15.00
2018-12-23T06:01:56.960Z,16.30
2018-12-23T06:02:56.495Z,15.80
2018-12-23T06:03:55.473Z,16.80
2018-12-23T06:04:56.970Z,16.40
2018-12-23T06:05:56.063Z,16.40
2018-12-23T06:07:00.902Z,16.10
2018-12-23T06:07:56.471Z,16.10
2018-12-23T06:08:56.037Z,15.70
2018-12-23T06:09:56.000Z,16.30
2018-12-23T06:10:55.986Z,17.10
2018-12-23T06:11:58.463Z,16.80
2018-12-23T06:12:56.968Z,17.00
2018-12-23T06:13:56.479Z,16.90
2018-12-23T06:14:56.020Z,16.70
2018-12-23T06:15:56.467Z,16.70
2018-12-23T06:16:56.965Z,16.70
2018-12-23T06:17:56.965Z,16.70
2018-12-23T06:18:57.002Z,16.90
2018-12-23T06:19:56.469Z,16.80
2018-12-23T06:20:55.981Z,17.30
2018-12-23T06:21:56.058Z,17.50
2018-12-23T06:22:56.015Z,17.10
2018-12-23T06:23:56.512Z,17.30
2018-12-23T06:24:56.523Z,16.90
2018-12-23T06:25:56.504Z,17.40
2018-12-23T06:26:55.549Z,16.40
2018-12-23T06:27:59.965Z,16.70
2018-12-23T06:28:55.007Z,17.00
2018-12-23T06:29:56.966Z,16.80
2018-12-23T06:30:55.474Z,16.40
2018-12-23T06:31:54.931Z,16.60
2018-12-23T06:32:55.550Z,16.50
2018-12-23T06:33:56.477Z,16.70
2018-12-23T06:34:56.510Z,16.50
2018-12-23T06:35:55.547Z,15.80
2018-12-23T06:36:54.830Z,16.40
2018-12-23T06:37:54.834Z,16.40
2018-12-23T06:38:54.881Z,15.90
2018-12-23T06:39:54.785Z,16.10
2018-12-23T06:40:54.762Z,15.50
2018-12-23T06:41:54.785Z,15.00
2018-12-23T06:42:56.484Z,15.60
2018-12-23T06:43:56.476Z,16.20
2018-12-23T06:44:54.662Z,15.20
2018-12-23T06:45:54.648Z,15.30
2018-12-23T06:46:54.637Z,15.70
2018-12-23T06:47:56.968Z,15.10
2018-12-23T06:48:55.502Z,15.00
2018-12-23T06:49:55.481Z,15.00
2018-12-23T06:50:54.552Z,14.70
2018-12-23T06:51:54.540Z,15.50
2018-12-23T06:52:55.518Z,15.10
2018-12-23T06:53:54.507Z,14.50
2018-12-23T06:54:55.968Z,15.30
2018-12-23T06:55:54.462Z,14.70
2018-12-23T06:56:57.969Z,14.60
2018-12-23T06:57:56.479Z,14.20
2018-12-23T06:58:54.427Z,14.60
2018-12-23T06:59:54.586Z,14.60
2018-12-23T07:00:56.488Z,14.20
2018-12-23T07:01:58.479Z,14.50
2018-12-23T07:02:56.970Z,14.80
2018-12-23T07:03:54.970Z,14.00
2018-12-23T07:04:56.470Z,14.30
2018-12-23T07:05:54.985Z,14.10
2018-12-23T07:06:55.512Z,14.10
2018-12-23T07:07:55.503Z,13.90
2018-12-23T07:08:56.971Z,14.00
2018-12-23T07:09:56.471Z,14.20
2018-12-23T07:10:56.983Z,13.90
2018-12-23T07:11:55.025Z,13.80
2018-12-23T07:12:54.132Z,13.80
2018-12-23T07:13:55.013Z,13.70
2018-12-23T07:14:56.971Z,13.50
2018-12-23T07:15:54.071Z,13.70
2018-12-23T07:16:55.009Z,13.10
2018-12-23T07:17:54.074Z,13.30
2018-12-23T07:18:55.521Z,14.10
2018-12-23T07:19:57.481Z,13.40
2018-12-23T07:20:55.261Z,13.30
2018-12-23T07:21:54.555Z,14.00
2018-12-23T07:22:54.518Z,12.60
2018-12-23T07:23:54.093Z,12.60
2018-12-23T07:24:54.528Z,13.20
2018-12-23T07:25:54.998Z,13.30
2018-12-23T07:26:54.562Z,13.00
2018-12-23T07:27:55.014Z,12.70
2018-12-23T07:28:58.482Z,12.70
2018-12-23T07:29:54.490Z,11.90
2018-12-23T07:31:01.475Z,12.60
2018-12-23T07:31:56.485Z,12.90
2018-12-23T07:32:57.985Z,12.50
2018-12-23T07:33:53.725Z,12.80
2018-12-23T07:34:55.476Z,12.50
2018-12-23T07:35:54.518Z,12.10
2018-12-23T07:36:53.707Z,12.10
2018-12-23T07:37:54.493Z,11.30
2018-12-23T07:38:54.110Z,12.00
2018-12-23T07:39:54.485Z,11.60
2018-12-23T07:40:55.477Z,11.60
2018-12-23T07:41:53.606Z,11.10
2018-12-23T07:42:56.486Z,11.30
2018-12-23T07:43:53.643Z,11.30
2018-12-23T07:44:54.061Z,11.90
2018-12-23T07:45:56.979Z,10.80
2018-12-23T07:46:54.023Z,11.10
2018-12-23T07:47:54.020Z,10.90
2018-12-23T07:48:54.976Z,10.40
2018-12-23T07:49:54.018Z,10.30
2018-12-23T07:50:54.021Z,10.20
2018-12-23T07:51:57.988Z,10.20
2018-12-23T07:52:55.519Z,10.50
2018-12-23T07:53:54.001Z,11.10
2018-12-23T07:54:55.023Z,9.90
2018-12-23T07:55:54.042Z,9.90
2018-12-23T07:56:55.988Z,9.80
2018-12-23T07:57:55.978Z,9.60
2018-12-23T07:58:55.979Z,9.10
2018-12-23T07:59:59.995Z,9.80
2018-12-23T08:00:55.480Z,10.20
2018-12-23T08:01:54.521Z,9.60
2018-12-23T08:02:54.979Z,9.40
2018-12-23T08:03:56.019Z,9.40
2018-12-23T08:04:54.481Z,9.40
2018-12-23T08:05:55.515Z,9.40
2018-12-23T08:06:54.025Z,9.60
2018-12-23T08:07:56.026Z,9.20
2018-12-23T08:08:53.041Z,9.30
2018-12-23T08:09:56.980Z,8.60
2018-12-23T08:10:54.015Z,9.20
2018-12-23T08:11:56.480Z,8.60
2018-12-23T08:12:52.959Z,8.50
2018-12-23T08:13:54.481Z,8.60
2018-12-23T08:14:53.525Z,8.60
2018-12-23T08:15:52.913Z,8.70
2018-12-23T08:16:52.911Z,9.00
2018-12-23T08:17:55.483Z,8.30
2018-12-23T08:18:55.489Z,9.00
2018-12-23T08:19:53.533Z,8.50
2018-12-23T08:20:53.517Z,8.40
2018-12-23T08:21:53.543Z,8.20
2018-12-23T08:22:55.482Z,8.00
2018-12-23T08:23:52.773Z,8.30
2018-12-23T08:24:57.055Z,8.50
2018-12-23T08:25:53.511Z,7.90
2018-12-23T08:26:53.536Z,8.10
2018-12-23T08:27:54.993Z,8.20
2018-12-23T08:28:52.656Z,7.90
2018-12-23T08:29:53.507Z,7.70
2018-12-23T08:30:53.516Z,8.50
2018-12-23T08:31:54.484Z,7.60
2018-12-23T08:32:53.494Z,8.10
2018-12-23T08:33:52.559Z,8.10
2018-12-23T08:34:56.011Z,7.70
2018-12-23T08:35:52.548Z,7.70
2018-12-23T08:36:54.984Z,7.70
2018-12-23T08:37:53.984Z,7.40
2018-12-23T08:38:52.467Z,7.30
2018-12-23T08:39:53.535Z,7.70
2018-12-23T08:40:52.459Z,7.80
2018-12-23T08:41:53.994Z,7.60
2018-12-23T08:42:53.985Z,8.00
2018-12-23T08:43:52.382Z,7.10
2018-12-23T08:44:53.990Z,7.60
2018-12-23T08:45:52.986Z,7.30
2018-12-23T08:46:52.309Z,6.90
2018-12-23T08:47:54.029Z,7.50
2018-12-23T08:48:53.987Z,7.00
2018-12-23T08:49:54.997Z,6.90
2018-12-23T08:50:52.262Z,6.30
2018-12-23T08:51:52.236Z,6.70
2018-12-23T08:52:54.987Z,6.80
2018-12-23T08:53:53.027Z,7.10
2018-12-23T08:54:56.488Z,7.30
2018-12-23T08:55:52.172Z,6.50
2018-12-23T08:56:53.998Z,6.80
2018-12-23T08:57:52.115Z,7.00
2018-12-23T08:58:55.997Z,6.70
2018-12-23T08:59:54.996Z,6.80
2018-12-23T09:00:56.489Z,6.70
2018-12-23T09:01:55.496Z,6.90
2018-12-23T09:02:53.051Z,6.50
2018-12-23T09:03:52.014Z,6.60
2018-12-23T09:04:55.999Z,6.50
2018-12-23T09:05:51.966Z,6.30
2018-12-23T09:06:53.501Z,6.40
2018-12-23T09:07:53.068Z,6.30
2018-12-23T09:08:52.533Z,6.50
2018-12-23T09:09:57.170Z,6.50
2018-12-23T09:10:53.542Z,6.00
2018-12-23T09:11:55.491Z,6.70
2018-12-23T09:12:53.024Z,6.40
2018-12-23T09:13:53.998Z,7.00
2018-12-23T09:14:53.493Z,6.30
2018-12-23T09:15:52.502Z,6.80
2018-12-23T09:16:55.499Z,6.20
2018-12-23T09:17:51.746Z,6.60
2018-12-23T09:18:53.513Z,6.60
2018-12-23T09:19:51.696Z,6.50
2018-12-23T09:20:51.667Z,6.40
2018-12-23T09:21:52.551Z,6.50
2018-12-23T09:23:00.503Z,6.80
2018-12-23T09:23:53.492Z,6.50
2018-12-23T09:24:52.584Z,7.00
2018-12-23T09:25:52.554Z,6.30
2018-12-23T09:26:52.543Z,5.90
2018-12-23T09:27:52.538Z,6.00
2018-12-23T09:28:53.504Z,6.40
2018-12-23T09:29:52.043Z,6.80
2018-12-23T09:30:53.995Z,6.10
2018-12-23T09:31:53.623Z,6.50
2018-12-23T09:32:53.001Z,6.40
2018-12-23T09:33:52.542Z,6.20
2018-12-23T09:34:56.496Z,6.10
2018-12-23T09:35:52.040Z,6.00
2018-12-23T09:36:52.532Z,6.60
2018-12-23T09:38:01.142Z,6.20
2018-12-23T09:38:52.557Z,6.80
2018-12-23T09:39:52.540Z,6.50
2018-12-23T09:40:52.540Z,6.40
2018-12-23T09:41:52.069Z,6.80
2018-12-23T09:42:53.542Z,6.30
2018-12-23T09:43:52.042Z,6.40
2018-12-23T09:44:51.237Z,6.30
2018-12-23T09:45:54.997Z,6.50
2018-12-23T09:46:52.053Z,6.50
2018-12-23T09:47:53.999Z,6.40
2018-12-23T09:48:53.998Z,6.30
2018-12-23T09:49:52.060Z,5.90
2018-12-23T09:50:56.008Z,6.30
2018-12-23T09:51:54.506Z,6.50
2018-12-23T09:52:54.998Z,16.00
2018-12-23T09:53:55.507Z,7.80
2018-12-23T09:54:54.517Z,7.30
2018-12-23T09:55:52.058Z,6.50
2018-12-23T09:56:56.525Z,10.90
2018-12-23T09:57:53.035Z,7.60
2018-12-23T09:58:59.498Z,6.90
2018-12-23T09:59:53.534Z,6.30
2018-12-23T10:00:56.000Z,6.10
2018-12-23T10:01:53.544Z,6.20
2018-12-23T10:02:54.022Z,6.60
2018-12-23T10:03:57.500Z,6.60
2018-12-23T10:04:57.024Z,6.60
2018-12-23T10:05:50.834Z,6.30
2018-12-23T10:06:50.798Z,6.40
2018-12-23T10:07:50.791Z,6.20
2018-12-23T10:08:50.829Z,6.40
2018-12-23T10:09:50.736Z,6.20
2018-12-23T10:10:50.726Z,8.70
2018-12-23T10:11:50.740Z,7.50
2018-12-23T10:12:50.687Z,6.80
2018-12-23T10:13:50.663Z,6.60
2018-12-23T10:14:50.657Z,6.30
2018-12-23T10:15:50.636Z,6.50
2018-12-23T10:16:50.602Z,6.60
2018-12-23T10:17:50.656Z,6.50
2018-12-23T10:18:50.567Z,6.50
2018-12-23T10:19:50.611Z,6.20
2018-12-23T10:20:50.536Z,6.20
2018-12-23T10:21:50.514Z,6.30
2018-12-23T10:22:50.512Z,6.50
2018-12-23T10:23:50.475Z,6.50
2018-12-23T10:24:50.456Z,6.20
2018-12-23T10:25:50.442Z,6.10
2018-12-23T10:26:50.419Z,6.10
2018-12-23T10:27:50.413Z,5.90
2018-12-23T10:28:50.379Z,5.10
2018-12-23T10:29:50.386Z,6.00
2018-12-23T10:30:50.346Z,6.30
2018-12-23T10:31:50.324Z,5.90
2018-12-23T10:32:50.316Z,6.20
2018-12-23T10:33:50.302Z,5.90
2018-12-23T10:34:50.279Z,5.70
2018-12-23T10:35:50.247Z,5.70
2018-12-23T10:36:50.229Z,5.70
2018-12-23T10:37:50.211Z,5.90
2018-12-23T10:38:50.217Z,5.50
2018-12-23T10:39:50.182Z,6.00
2018-12-23T10:40:50.157Z,6.20
2018-12-23T10:41:50.136Z,5.60
2018-12-23T10:42:50.156Z,5.90
2018-12-23T10:43:50.101Z,6.00
2018-12-23T10:44:50.083Z,5.60
2018-12-23T10:45:50.058Z,5.60
2018-12-23T10:46:50.045Z,6.00
2018-12-23T10:47:50.041Z,5.80
2018-12-23T10:48:50.005Z,6.00
2018-12-23T10:49:49.994Z,6.50
2018-12-23T10:50:49.968Z,5.70
2018-12-23T10:51:49.949Z,6.10
2018-12-23T10:52:49.923Z,6.50
2018-12-23T10:53:49.921Z,6.60
2018-12-23T10:54:49.894Z,6.40
2018-12-23T10:55:49.886Z,5.80
2018-12-23T10:56:49.861Z,6.00
2018-12-23T10:57:49.833Z,5.90
2018-12-23T10:58:49.840Z,6.20
2018-12-23T10:59:49.812Z,6.20
2018-12-23T11:00:49.804Z,6.00
2018-12-23T11:01:49.755Z,6.20
2018-12-23T11:02:49.755Z,6.60
2018-12-23T11:03:49.734Z,6.90
2018-12-23T11:04:49.700Z,6.20
2018-12-23T11:05:49.681Z,6.80
2018-12-23T11:06:49.668Z,6.60
2018-12-23T11:07:49.661Z,6.20
2018-12-23T11:08:49.626Z,6.70
2018-12-23T11:09:49.614Z,6.40
2018-12-23T11:10:49.587Z,6.20
2018-12-23T11:11:49.569Z,6.10
2018-12-23T11:12:49.556Z,6.70
2018-12-23T11:13:49.556Z,6.00
2018-12-23T11:14:49.520Z,6.80
2018-12-23T11:15:49.494Z,6.30
2018-12-23T11:16:49.473Z,6.70
2018-12-23T11:17:49.451Z,6.40
2018-12-23T11:18:49.462Z,6.20
2018-12-23T11:19:49.425Z,6.20
2018-12-23T11:20:49.390Z,6.90
2018-12-23T11:21:49.380Z,7.60
2018-12-23T11:22:49.353Z,7.40
2018-12-23T11:23:49.336Z,6.60
2018-12-23T11:24:49.329Z,6.80
2018-12-23T11:25:49.299Z,6.40
2018-12-23T11:26:49.288Z,7.50
2018-12-23T11:27:49.267Z,6.70
2018-12-23T11:28:49.240Z,6.70
2018-12-23T11:29:49.254Z,6.90
2018-12-23T11:30:49.206Z,6.70
2018-12-23T11:31:49.184Z,6.80
2018-12-23T11:32:49.161Z,6.80
2018-12-23T11:33:49.143Z,7.20
2018-12-23T11:34:49.124Z,6.60
2018-12-23T11:35:49.123Z,7.10
2018-12-23T11:36:49.080Z,6.50
2018-12-23T11:37:49.069Z,6.90
2018-12-23T11:38:49.044Z,7.50
2018-12-23T11:39:49.033Z,7.40
2018-12-23T11:40:49.032Z,7.20
2018-12-23T11:41:48.984Z,7.10
2018-12-23T11:42:48.969Z,7.80
2018-12-23T11:43:48.955Z,7.30
2018-12-23T11:44:48.968Z,7.40
2018-12-23T11:45:48.928Z,7.30
2018-12-23T11:46:48.893Z,7.30
2018-12-23T11:47:48.892Z,6.80
2018-12-23T11:48:48.855Z,7.20
2018-12-23T11:49:48.827Z,7.10
2018-12-23T11:50:48.829Z,6.90
2018-12-23T11:51:48.797Z,7.10
2018-12-23T11:52:48.779Z,6.90
2018-12-23T11:53:48.768Z,6.80
2018-12-23T11:54:48.738Z,6.80
2018-12-23T11:55:48.714Z,7.00
2018-12-23T11:56:48.732Z,7.30
2018-12-23T11:57:48.701Z,7.20
2018-12-23T11:58:48.670Z,7.30
2018-12-23T11:59:48.654Z,6.60
2018-12-23T12:00:48.637Z,7.20
2018-12-23T12:01:48.617Z,7.10
2018-12-23T12:02:48.594Z,7.30
2018-12-23T12:03:48.560Z,6.50
2018-12-23T12:04:48.574Z,7.10
2018-12-23T12:05:48.542Z,6.80
2018-12-23T12:06:48.505Z,7.00
2018-12-23T12:07:48.484Z,6.90
2018-12-23T12:08:48.467Z,6.90
2018-12-23T12:09:48.462Z,6.70
2018-12-23T12:10:48.427Z,6.90
2018-12-23T12:11:48.409Z,7.20
2018-12-23T12:12:48.390Z,6.70
2018-12-23T12:13:48.370Z,6.90
2018-12-23T12:14:48.353Z,6.60
2018-12-23T12:15:48.355Z,6.80
2018-12-23T12:16:48.316Z,6.60
2018-12-23T12:17:48.296Z,6.50
2018-12-23T12:18:48.279Z,6.70
2018-12-23T12:19:48.266Z,6.70
2018-12-23T12:20:48.234Z,6.90
2018-12-23T12:21:48.255Z,7.20
2018-12-23T12:22:48.195Z,7.20
2018-12-23T12:23:48.179Z,6.70
2018-12-23T12:24:48.157Z,7.10
2018-12-23T12:25:48.142Z,6.80
2018-12-23T12:26:48.127Z,6.50
2018-12-23T12:27:48.135Z,6.50
2018-12-23T12:28:48.091Z,7.10
2018-12-23T12:29:48.072Z,6.10
2018-12-23T12:30:48.050Z,6.20
2018-12-23T12:31:48.025Z,6.70
2018-12-23T12:32:48.017Z,6.70
2018-12-23T12:33:48.001Z,6.40
2018-12-23T12:34:47.970Z,6.50
2018-12-23T12:35:47.980Z,6.40
2018-12-23T12:36:47.938Z,6.40
2018-12-23T12:37:47.920Z,6.20
2018-12-23T12:38:52.149Z,5.90
2018-12-23T12:39:47.880Z,5.80
2018-12-23T12:40:47.878Z,5.80
2018-12-23T12:41:47.835Z,5.60
2018-12-23T12:42:47.817Z,5.50
2018-12-23T12:43:47.813Z,5.60
2018-12-23T12:44:47.793Z,5.40
2018-12-23T12:45:47.771Z,5.60
2018-12-23T12:46:47.736Z,5.60
2018-12-23T12:47:47.725Z,6.00
2018-12-23T12:48:47.702Z,5.60
2018-12-23T12:49:47.702Z,5.20
2018-12-23T12:50:47.680Z,5.50
2018-12-23T12:51:47.652Z,5.40
2018-12-23T12:52:47.628Z,4.90
2018-12-23T12:53:47.603Z,5.30
2018-12-23T12:54:47.596Z,5.10
2018-12-23T12:55:47.676Z,5.40
2018-12-23T12:56:47.547Z,5.30
2018-12-23T12:57:47.528Z,5.00
2018-12-23T12:58:47.513Z,5.30
2018-12-23T12:59:47.491Z,5.50
2018-12-23T13:00:47.473Z,5.90
2018-12-23T13:01:47.474Z,5.20
2018-12-23T13:02:47.431Z,6.10
2018-12-23T13:03:47.414Z,5.20
2018-12-23T13:04:47.400Z,5.70
2018-12-23T13:05:47.392Z,5.60
2018-12-23T13:06:47.360Z,4.90